Ocean Celebrity — HOSZ — position and weather

sailwx.info

Track history (hours):
 
Tides and Currents Weather Stations Pressure Air Temp Water Temp Dewpoint Dewpoint Depression Visibility Wind Speed Wind Dir Waves Ship Positions

Ocean Celebrity

Last reported at 2015-Aug-01 00:24 UTC. Time now 2015-Aug-30 18:11 UTC.
Position N 28°50' E 123°43'.
Warning: this ship's position is 29 days out of date.

Length 289 m; draft 8.1 m.

Type: Cargo ship. MMSI: 356712000.

Date/timePositionNaut miles runAvg speedWind from/ knotsBaromVisibWave heightAir tempDewpointWater temp
2015-Aug-01 00:24N 28°50' E 123°43'2611.9
2015-Jul-31 22:15N 29°15' E 123°49'3612.3
2015-Jul-31 19:19N 29°50' E 123°58'912.0
2015-Jul-31 18:33N 29°59' E 123°60'1211.6
2015-Jul-31 17:33N 30°11' E 124°00'1211.0
2015-Jul-31 16:30N 30°22' E 124°00'1010.7
2015-Jul-31 15:32N 30°33' E 123°60'1010.2
2015-Jul-31 14:33N 30°43' E 124°00'3310.3
2015-Jul-31 11:22N 31°16' E 123°57'2413.2
2015-Jul-31 09:32N 31°40' E 123°60'1414.7
2015-Jul-31 08:33N 31°54' E 124°01'1414.1
2015-Jul-31 07:33N 32°08' E 124°01'1414.2
2015-Jul-31 06:34N 32°22' E 124°00'1313.0
2015-Jul-31 05:33N 32°35' E 124°00'1212.3
2015-Jul-31 04:33N 32°47' E 123°60'1211.6
2015-Jul-31 03:34N 32°59' E 124°00'1211.6
2015-Jul-31 02:30N 33°11' E 123°60'1111.9
2015-Jul-31 01:34N 33°22' E 124°00'2712.8
2015-Jul-30 23:29N 33°49' E 123°60'1112.4
2015-Jul-30 22:33N 34°00' E 123°58'4013.2
2015-Jul-30 19:33N 34°24' E 123°19'3611.6
2015-Jul-30 16:25N 34°44' E 122°43'1012.2
2015-Jul-30 15:33N 34°50' E 122°32'  
2015-Jul-26 19:11N 35°48' E 120°16'  
Track history (hours):
 
Tides and Currents Weather Stations Pressure Air Temp Water Temp Dewpoint Dewpoint Depression Visibility Wind Speed Wind Dir Waves Ship Positions

Ocean Celebrity

Last reported at 2015-Aug-01 00:24 UTC. Time now 2015-Aug-30 18:11 UTC.
Position N 28°50' E 123°43'.
Warning: this ship's position is 29 days out of date.

Length 289 m; draft 8.1 m.

Type: Cargo ship. MMSI: 356712000.

Date/timePositionNaut miles runAvg speedWind from/ knotsBaromVisibWave heightAir tempDewpointWater temp
2015-Aug-01 00:24N 28°50' E 123°43'2611.9
2015-Jul-31 22:15N 29°15' E 123°49'3612.3
2015-Jul-31 19:19N 29°50' E 123°58'912.0
2015-Jul-31 18:33N 29°59' E 123°60'1211.6
2015-Jul-31 17:33N 30°11' E 124°00'1211.0
2015-Jul-31 16:30N 30°22' E 124°00'1010.7
2015-Jul-31 15:32N 30°33' E 123°60'1010.2
2015-Jul-31 14:33N 30°43' E 124°00'3310.3
2015-Jul-31 11:22N 31°16' E 123°57'2413.2
2015-Jul-31 09:32N 31°40' E 123°60'1414.7
2015-Jul-31 08:33N 31°54' E 124°01'1414.1
2015-Jul-31 07:33N 32°08' E 124°01'1414.2
2015-Jul-31 06:34N 32°22' E 124°00'1313.0
2015-Jul-31 05:33N 32°35' E 124°00'1212.3
2015-Jul-31 04:33N 32°47' E 123°60'1211.6
2015-Jul-31 03:34N 32°59' E 124°00'1211.6
2015-Jul-31 02:30N 33°11' E 123°60'1111.9
2015-Jul-31 01:34N 33°22' E 124°00'2712.8
2015-Jul-30 23:29N 33°49' E 123°60'1112.4
2015-Jul-30 22:33N 34°00' E 123°58'4013.2
2015-Jul-30 19:33N 34°24' E 123°19'3611.6
2015-Jul-30 16:25N 34°44' E 122°43'1012.2
2015-Jul-30 15:33N 34°50' E 122°32'  
2015-Jul-26 19:11N 35°48' E 120°16'  

Dump ship's entire track history